createdAt,value
2023-01-02T00:04:56.486Z,98383.69
2023-01-02T00:10:25.560Z,98374.25
2023-01-02T00:15:50.483Z,98378.44
2023-01-02T00:21:18.576Z,98373.50
2023-01-02T00:26:47.455Z,98378.56
2023-01-02T00:32:12.484Z,98367.84
2023-01-02T00:37:37.479Z,98359.53
2023-01-02T00:43:04.467Z,98354.97
2023-01-02T00:48:29.502Z,98345.28
2023-01-02T00:53:54.512Z,98348.34
2023-01-02T00:59:22.463Z,98352.94
2023-01-02T01:04:48.501Z,98364.59
2023-01-02T01:10:14.528Z,98363.25
2023-01-02T01:15:41.694Z,98348.34
2023-01-02T01:21:06.643Z,98358.16
2023-01-02T01:26:30.539Z,98365.25
2023-01-02T01:31:58.629Z,98365.06
2023-01-02T01:37:22.541Z,98366.75
2023-01-02T01:42:50.255Z,98345.94
2023-01-02T01:48:18.707Z,98349.69
2023-01-02T01:53:46.532Z,98340.22
2023-01-02T01:59:10.556Z,98328.94
2023-01-02T02:04:38.597Z,98323.72
2023-01-02T02:10:06.563Z,98313.25
2023-01-02T02:15:41.553Z,98310.34
2023-01-02T02:21:14.686Z,98304.94
2023-01-02T02:27:10.564Z,98306.97
2023-01-02T02:32:45.560Z,98308.66
2023-01-02T02:38:16.605Z,98303.09
2023-01-02T02:43:50.747Z,98297.28
2023-01-02T02:49:24.545Z,98281.44
2023-01-02T02:54:55.702Z,98285.81
2023-01-02T03:00:25.762Z,98282.63
2023-01-02T03:05:56.580Z,98279.91
2023-01-02T03:11:23.592Z,98282.16
2023-01-02T03:16:55.618Z,98282.69
2023-01-02T03:22:28.595Z,98285.75
2023-01-02T03:27:59.561Z,98287.84
2023-01-02T03:33:29.573Z,98294.13
2023-01-02T03:39:00.629Z,98284.56
2023-01-02T03:44:26.608Z,98272.50
2023-01-02T03:50:00.635Z,98278.09
2023-01-02T03:55:29.622Z,98274.41
2023-01-02T04:01:00.591Z,98261.28
2023-01-02T04:06:33.790Z,98258.56
2023-01-02T04:12:05.595Z,98252.13
2023-01-02T04:17:33.636Z,98249.06
2023-01-02T04:23:03.632Z,98245.69
2023-01-02T04:28:34.643Z,98252.41
2023-01-02T04:34:01.621Z,98249.53
2023-01-02T04:39:29.630Z,98250.19
2023-01-02T04:44:56.655Z,98249.00
2023-01-02T04:50:21.617Z,98248.00
2023-01-02T04:55:45.635Z,98265.88
2023-01-02T05:01:17.849Z,98261.50
2023-01-02T05:06:42.644Z,98250.03
2023-01-02T05:12:07.625Z,98266.25
2023-01-02T05:17:34.678Z,98271.16
2023-01-02T05:23:12.698Z,98263.97
2023-01-02T05:28:38.725Z,98261.44
2023-01-02T05:34:07.688Z,98268.41
2023-01-02T05:39:31.671Z,98278.25
2023-01-02T05:44:57.652Z,98283.97
2023-01-02T05:50:25.644Z,98287.47
2023-01-02T05:55:50.759Z,98278.13
2023-01-02T06:01:20.892Z,98266.97
2023-01-02T06:06:49.724Z,98255.44
2023-01-02T06:12:13.704Z,98250.69
2023-01-02T06:17:38.661Z,98263.47
2023-01-02T06:23:05.732Z,98270.22
2023-01-02T06:28:31.807Z,98275.63
2023-01-02T06:33:56.714Z,98283.06
2023-01-02T06:39:24.683Z,98280.53
2023-01-02T06:44:48.721Z,98283.75
2023-01-02T06:50:14.735Z,98290.72
2023-01-02T06:55:41.713Z,98287.56
2023-01-02T07:01:11.821Z,98306.91
2023-01-02T07:06:37.737Z,98306.66
2023-01-02T07:12:05.721Z,98310.44
2023-01-02T07:17:29.749Z,98305.75
2023-01-02T07:22:59.715Z,98320.16
2023-01-02T07:28:26.735Z,98320.91
2023-01-02T07:33:51.742Z,98319.03
2023-01-02T07:39:15.723Z,98328.13
2023-01-02T07:44:43.897Z,98336.09
2023-01-02T07:50:08.743Z,98331.69
2023-01-02T07:55:33.740Z,98322.72
2023-01-02T08:01:05.719Z,98328.13
2023-01-02T08:06:30.723Z,98332.53
2023-01-02T08:11:54.768Z,98339.81
2023-01-02T08:17:22.771Z,98334.72
2023-01-02T08:22:46.763Z,98315.78
2023-01-02T08:28:11.885Z,98341.41
2023-01-02T08:33:38.744Z,98339.50
2023-01-02T08:39:03.728Z,98347.28
2023-01-02T08:44:27.749Z,98340.66
2023-01-02T08:49:55.797Z,98354.66
2023-01-02T08:55:21.818Z,98352.63
2023-01-02T09:00:46.735Z,98342.81
2023-01-02T09:06:18.146Z,98345.72
2023-01-02T09:11:48.769Z,98347.69
2023-01-02T09:17:12.772Z,98340.66
2023-01-02T09:22:41.070Z,98347.84
2023-01-02T09:28:04.941Z,98349.88
2023-01-02T09:33:29.798Z,98339.34
2023-01-02T09:38:56.943Z,98329.47
2023-01-02T09:44:26.792Z,98345.84
2023-01-02T09:50:01.802Z,98343.59
2023-01-02T09:55:43.857Z,98348.75
2023-01-02T10:01:08.815Z,98349.81
2023-01-02T10:06:41.826Z,98320.59
2023-01-02T10:12:18.850Z,98324.88
2023-01-02T10:17:48.835Z,98342.44
2023-01-02T10:23:17.820Z,98329.66
2023-01-02T10:28:53.863Z,98343.66
2023-01-02T10:34:19.851Z,98335.91
2023-01-02T10:39:44.831Z,98333.56
2023-01-02T10:45:12.823Z,98338.88
2023-01-02T10:50:42.855Z,98350.69
2023-01-02T10:56:08.065Z,98366.94
2023-01-02T11:01:35.969Z,98346.28
2023-01-02T11:07:09.841Z,98342.16
2023-01-02T11:12:34.871Z,98330.28
2023-01-02T11:18:02.873Z,98325.28
2023-01-02T11:23:33.859Z,98333.75
2023-01-02T11:28:59.995Z,98324.41
2023-01-02T11:34:32.845Z,98336.94
2023-01-02T11:39:57.849Z,98337.59
2023-01-02T11:45:25.990Z,98333.31
2023-01-02T11:50:53.888Z,98332.28
2023-01-02T11:56:23.858Z,98334.03
2023-01-02T12:02:05.983Z,98340.31
2023-01-02T12:07:47.904Z,98333.00
2023-01-02T12:13:29.942Z,98342.56
2023-01-02T12:19:16.890Z,98323.47
2023-01-02T12:25:11.083Z,98323.56
2023-01-02T12:30:38.897Z,98316.56
2023-01-02T12:36:33.926Z,98304.31
2023-01-02T12:42:12.010Z,98332.34
2023-01-02T12:48:14.527Z,98327.19
2023-01-02T12:54:20.158Z,98335.50
2023-01-02T13:00:18.908Z,98344.50
2023-01-02T13:05:52.920Z,98335.34
2023-01-02T13:11:20.913Z,98345.88
2023-01-02T13:16:45.976Z,98344.59
2023-01-02T13:22:26.940Z,98356.91
2023-01-02T13:27:51.985Z,98351.56
2023-01-02T13:33:30.943Z,98369.09
2023-01-02T13:39:00.928Z,98370.09
2023-01-02T13:44:27.948Z,98364.53
2023-01-02T13:49:51.925Z,98360.50
2023-01-02T13:55:41.946Z,98372.16
2023-01-02T14:01:08.032Z,98369.19
2023-01-02T14:06:40.963Z,98379.63
2023-01-02T14:12:11.937Z,98385.59
2023-01-02T14:17:49.947Z,98399.88
2023-01-02T14:23:17.949Z,98400.03
2023-01-02T14:28:48.954Z,98405.53
2023-01-02T14:34:12.999Z,98427.09
2023-01-02T14:39:41.038Z,98440.50
2023-01-02T14:45:13.951Z,98456.50
2023-01-02T14:50:44.018Z,98452.91
2023-01-02T14:56:14.001Z,98457.66
2023-01-02T15:07:19.013Z,98465.00
2023-01-02T15:12:58.985Z,98456.94
2023-01-02T15:18:31.998Z,98468.25
2023-01-02T15:23:59.982Z,98477.69
2023-01-02T15:29:35.084Z,98485.63
2023-01-02T15:35:03.001Z,98491.91
2023-01-02T15:40:34.053Z,98502.56
2023-01-02T15:46:04.026Z,98504.47
2023-01-02T15:51:40.311Z,98519.03
2023-01-02T15:57:28.052Z,98528.84
2023-01-02T16:02:54.450Z,98541.19
2023-01-02T16:08:20.998Z,98531.75
2023-01-02T16:14:06.010Z,98536.78
2023-01-02T16:19:37.025Z,98547.59
2023-01-02T16:25:10.025Z,98548.47
2023-01-02T16:30:48.129Z,98565.03
2023-01-02T16:36:19.081Z,98565.53
2023-01-02T16:42:27.031Z,98572.16
2023-01-02T16:47:54.102Z,98563.53
2023-01-02T16:53:32.045Z,98563.00
2023-01-02T17:04:22.070Z,98573.00
2023-01-02T17:09:47.093Z,98568.94
2023-01-02T17:15:14.208Z,98557.47
2023-01-02T17:20:40.210Z,98577.38
2023-01-02T17:26:09.042Z,98575.38
2023-01-02T17:31:37.142Z,98581.09
2023-01-02T17:37:04.077Z,98577.91
2023-01-02T17:42:30.275Z,98585.16
2023-01-02T17:48:02.611Z,98574.84
2023-01-02T17:53:39.078Z,98580.75
2023-01-02T17:59:05.089Z,98590.56
2023-01-02T18:04:32.118Z,98596.97
2023-01-02T18:10:08.788Z,98582.47
2023-01-02T18:15:38.152Z,98606.66
2023-01-02T18:21:06.101Z,98631.19
2023-01-02T18:26:37.092Z,98656.66
2023-01-02T18:32:03.113Z,98697.50
2023-01-02T18:37:34.119Z,98700.91
2023-01-02T18:43:09.134Z,98765.38
2023-01-02T18:48:37.167Z,98802.75
2023-01-02T18:54:12.397Z,98820.13
2023-01-02T18:59:40.127Z,98851.69
2023-01-02T19:05:11.173Z,98877.25
2023-01-02T19:11:03.660Z,98876.53
2023-01-02T19:16:56.240Z,98880.94
2023-01-02T19:22:27.172Z,98866.38
2023-01-02T19:27:56.207Z,98873.56
2023-01-02T19:44:50.108Z,98914.53
2023-01-02T19:50:16.117Z,98926.53
2023-01-02T19:55:44.399Z,98922.72
2023-01-02T20:01:12.210Z,98941.53
2023-01-02T20:06:37.137Z,98936.31
2023-01-02T20:12:15.179Z,98942.78
2023-01-02T20:17:43.111Z,98938.03
2023-01-02T20:23:08.158Z,98946.91
2023-01-02T20:28:33.224Z,98968.38
2023-01-02T20:34:01.192Z,98971.78
2023-01-02T20:39:27.151Z,98984.69
2023-01-02T20:44:51.196Z,98982.44
2023-01-02T20:50:19.161Z,98992.97
2023-01-02T20:55:46.380Z,99008.53
2023-01-02T21:01:11.248Z,99023.13
2023-01-02T21:06:38.196Z,99049.34
2023-01-02T21:12:03.153Z,99042.50
2023-01-02T21:17:27.170Z,99054.19
2023-01-02T21:22:55.150Z,99038.84
2023-01-02T21:28:21.187Z,99037.28
2023-01-02T21:33:46.174Z,99043.69
2023-01-02T21:39:13.207Z,99041.53
2023-01-02T21:44:44.202Z,99050.34
2023-01-02T21:50:09.260Z,99061.75
2023-01-02T21:55:38.246Z,99059.69
2023-01-02T22:01:03.245Z,99060.91
2023-01-02T22:06:28.203Z,99067.50
2023-01-02T22:12:05.183Z,99069.25
2023-01-02T22:17:29.223Z,99074.25
2023-01-02T22:22:54.203Z,99077.69
2023-01-02T22:28:21.301Z,99092.69
2023-01-02T22:33:46.206Z,99094.53
2023-01-02T22:39:28.080Z,99118.91
2023-01-02T22:45:02.222Z,99119.66
2023-01-02T22:50:31.200Z,99116.00
2023-01-02T22:55:56.204Z,99123.91
2023-01-02T23:01:27.312Z,99141.47
2023-01-02T23:07:22.360Z,99123.66
2023-01-02T23:12:36.217Z,99112.94
2023-01-02T23:18:16.278Z,99110.63
2023-01-02T23:23:41.304Z,99122.56
2023-01-02T23:29:06.944Z,99122.81
2023-01-02T23:34:38.241Z,99119.41
2023-01-02T23:40:04.262Z,99119.03
2023-01-02T23:45:35.290Z,99129.03
2023-01-02T23:51:09.271Z,99138.53
2023-01-02T23:56:38.237Z,99146.56
